메인 페이지
METAR-TAF:

METAR-TAF

공항 :

룩셈부르크 핀델 국제공항

룩셈부르크, 룩셈부르크

위도: 49-37N, 경도: 006-13E, 고도: 376m

현재 날씨관측

예보는 20분 전, 09:50시(UTC)에 발표되었습니다.
북북동9kt북북서풍과 동북동풍을 오가는
온도 18°C
습도 56%
기압 1021 hPa
시정 10km 이상
고도 3600ft 상공 구름 조금

METAR: ELLX 200950Z 03009KT 340V070 9999 FEW036 18/09 Q1021 NOSIG

시각: 12:10 (10:10 UTC)

예보

예보는 5 시간 10분 전, 05:00시(UTC)에 발표되었습니다.
예보 대상 시간: 20일 06시부터 21일 12시까지 (UTC)
북동10kt
시정 10km 이상
1500m 미만 상공 구름 및 적란운 없음
전환 중
20일 10시부터 20일 13시까지 (UTC)
10kt, 순간 최대 풍속 25kt
시정 10km 이상
고도 4000ft 상공 구름 보통, 타워링 적운.
일시적
20일 10시부터 20일 22시까지 (UTC)
시정: 4500m
고도 3500ft 상공 구름 보통, 적란운.
소나기
확률 40% :
일시적
20일 13시부터 20일 18시까지 (UTC)
여러 방향의 바람 15kt, 순간 최대 풍속 30kt
시정: 3500m
고도 3000ft 상공 구름 많음, 적란운.
뇌우, 비
전환 중
20일 21시부터 20일 24시까지 (UTC)
8kt
시정 10km 이상
고도 3500ft 상공 구름 보통

TAF: ELLX 200500Z 2006/2112 05010KT CAVOK BECMG 2010/2013 08010G25KT 9999 SCT040TCU TEMPO 2010/2022 4500 SHRA SCT035CB PROB40 TEMPO 2013/2018 VRB15G30KT 3500 TSRA BKN030CB BECMG 2021/2024 10008KT 9999 SCT035

4,000개 이상의 공항 관측 자료 및 예보 (METAR 및 TAF 보고).

지도상에서 검색 가능한 기상관측소가 노란 점과 빨간 점으로 표시되어 있습니다.

기상관측소 명을 보려면 표시 위로 마우스를 이동하세요.

날씨 관측과 예보를 보려면 클릭하세요.

지도 변경 : 확대하려면 엑스 표시가 있는 녹색 버튼, 축소하려면 빼기 표시가 있는 녹색 버튼, 다음 페이지의 지도를 보려면 녹색 화살표를 클릭하세요.


METAR-TAF: